sensor_id;sensor_type;location;lat;lon;timestamp;P1;durP1;ratioP1;P2;durP2;ratioP2
57401;SDS011;43226;51.110;6.998;2022-07-29T00:01:55;5.53;;;1.80;;
57401;SDS011;43226;51.110;6.998;2022-07-29T00:04:20;3.83;;;1.63;;
57401;SDS011;43226;51.110;6.998;2022-07-29T00:06:45;3.50;;;1.50;;
57401;SDS011;43226;51.110;6.998;2022-07-29T00:09:10;4.50;;;2.00;;
57401;SDS011;43226;51.110;6.998;2022-07-29T00:11:35;2.93;;;1.57;;
57401;SDS011;43226;51.110;6.998;2022-07-29T00:14:01;11.03;;;1.57;;
57401;SDS011;43226;51.110;6.998;2022-07-29T00:16:26;7.10;;;1.60;;
57401;SDS011;43226;51.110;6.998;2022-07-29T00:18:51;3.90;;;1.57;;
57401;SDS011;43226;51.110;6.998;2022-07-29T00:21:16;5.37;;;1.70;;
57401;SDS011;43226;51.110;6.998;2022-07-29T00:23:41;8.63;;;1.60;;
57401;SDS011;43226;51.110;6.998;2022-07-29T00:26:07;5.43;;;2.30;;
57401;SDS011;43226;51.110;6.998;2022-07-29T00:28:32;2.50;;;1.60;;
57401;SDS011;43226;51.110;6.998;2022-07-29T00:30:57;3.33;;;1.53;;
57401;SDS011;43226;51.110;6.998;2022-07-29T00:33:22;6.03;;;1.90;;
57401;SDS011;43226;51.110;6.998;2022-07-29T00:35:48;3.80;;;1.87;;
57401;SDS011;43226;51.110;6.998;2022-07-29T00:38:14;6.63;;;2.00;;
57401;SDS011;43226;51.110;6.998;2022-07-29T00:40:40;4.23;;;1.50;;
57401;SDS011;43226;51.110;6.998;2022-07-29T00:43:05;6.03;;;1.90;;
57401;SDS011;43226;51.110;6.998;2022-07-29T00:45:30;4.30;;;1.50;;
57401;SDS011;43226;51.110;6.998;2022-07-29T00:47:56;4.60;;;2.23;;
57401;SDS011;43226;51.110;6.998;2022-07-29T00:50:21;4.20;;;2.13;;
57401;SDS011;43226;51.110;6.998;2022-07-29T00:52:47;2.00;;;1.80;;
57401;SDS011;43226;51.110;6.998;2022-07-29T00:55:13;3.67;;;1.70;;
57401;SDS011;43226;51.110;6.998;2022-07-29T00:57:38;4.50;;;1.50;;
57401;SDS011;43226;51.110;6.998;2022-07-29T01:00:06;6.87;;;1.73;;
57401;SDS011;43226;51.110;6.998;2022-07-29T01:02:32;3.30;;;1.77;;
57401;SDS011;43226;51.110;6.998;2022-07-29T01:04:57;7.20;;;1.60;;
57401;SDS011;43226;51.110;6.998;2022-07-29T01:07:22;2.80;;;1.53;;
57401;SDS011;43226;51.110;6.998;2022-07-29T01:09:48;3.03;;;1.57;;
57401;SDS011;43226;51.110;6.998;2022-07-29T01:12:15;5.27;;;2.10;;
57401;SDS011;43226;51.110;6.998;2022-07-29T01:14:41;4.30;;;2.37;;
57401;SDS011;43226;51.110;6.998;2022-07-29T01:17:09;2.73;;;1.77;;
57401;SDS011;43226;51.110;6.998;2022-07-29T01:22:25;2.40;;;1.40;;
57401;SDS011;43226;51.110;6.998;2022-07-29T01:25:02;1.50;;;1.40;;
57401;SDS011;43226;51.110;6.998;2022-07-29T01:29:59;4.30;;;1.60;;
57401;SDS011;43226;51.110;6.998;2022-07-29T01:32:29;5.60;;;2.20;;
57401;SDS011;43226;51.110;6.998;2022-07-29T01:40:05;3.60;;;2.37;;
57401;SDS011;43226;51.110;6.998;2022-07-29T01:42:43;2.07;;;1.70;;
57401;SDS011;43226;51.110;6.998;2022-07-29T01:45:13;2.07;;;1.57;;
57401;SDS011;43226;51.110;6.998;2022-07-29T01:50:23;3.83;;;2.20;;
57401;SDS011;43226;51.110;6.998;2022-07-29T01:52:52;3.60;;;1.67;;
57401;SDS011;43226;51.110;6.998;2022-07-29T01:55:19;6.20;;;1.87;;
57401;SDS011;43226;51.110;6.998;2022-07-29T01:57:45;5.07;;;1.70;;
57401;SDS011;43226;51.110;6.998;2022-07-29T02:00:12;8.20;;;1.57;;
57401;SDS011;43226;51.110;6.998;2022-07-29T02:02:37;3.10;;;1.80;;
57401;SDS011;43226;51.110;6.998;2022-07-29T02:05:04;5.37;;;1.60;;
57401;SDS011;43226;51.110;6.998;2022-07-29T02:07:31;2.40;;;1.77;;
57401;SDS011;43226;51.110;6.998;2022-07-29T02:09:56;7.97;;;1.83;;
57401;SDS011;43226;51.110;6.998;2022-07-29T02:12:23;2.13;;;1.50;;
57401;SDS011;43226;51.110;6.998;2022-07-29T02:14:50;6.53;;;1.90;;
57401;SDS011;43226;51.110;6.998;2022-07-29T02:17:19;2.57;;;1.50;;
57401;SDS011;43226;51.110;6.998;2022-07-29T02:19:45;3.03;;;1.83;;
57401;SDS011;43226;51.110;6.998;2022-07-29T02:22:12;5.33;;;1.60;;
57401;SDS011;43226;51.110;6.998;2022-07-29T02:24:37;4.07;;;1.70;;
57401;SDS011;43226;51.110;6.998;2022-07-29T02:27:05;4.20;;;1.50;;
57401;SDS011;43226;51.110;6.998;2022-07-29T02:29:31;3.07;;;1.53;;
57401;SDS011;43226;51.110;6.998;2022-07-29T02:31:57;12.73;;;2.50;;
57401;SDS011;43226;51.110;6.998;2022-07-29T02:34:23;9.13;;;2.17;;
57401;SDS011;43226;51.110;6.998;2022-07-29T02:36:49;5.90;;;1.73;;
57401;SDS011;43226;51.110;6.998;2022-07-29T02:39:15;4.10;;;2.10;;
57401;SDS011;43226;51.110;6.998;2022-07-29T02:41:47;17.33;;;1.70;;
57401;SDS011;43226;51.110;6.998;2022-07-29T02:44:14;3.90;;;1.60;;
57401;SDS011;43226;51.110;6.998;2022-07-29T02:46:45;4.00;;;1.87;;
57401;SDS011;43226;51.110;6.998;2022-07-29T02:51:55;8.97;;;1.80;;
57401;SDS011;43226;51.110;6.998;2022-07-29T02:54:33;4.27;;;2.33;;
57401;SDS011;43226;51.110;6.998;2022-07-29T02:57:03;3.10;;;1.97;;
57401;SDS011;43226;51.110;6.998;2022-07-29T02:59:29;7.27;;;2.10;;
57401;SDS011;43226;51.110;6.998;2022-07-29T03:01:55;7.80;;;2.00;;
57401;SDS011;43226;51.110;6.998;2022-07-29T03:04:22;3.70;;;2.00;;
57401;SDS011;43226;51.110;6.998;2022-07-29T03:06:49;6.00;;;1.60;;
57401;SDS011;43226;51.110;6.998;2022-07-29T03:09:14;6.20;;;2.00;;
57401;SDS011;43226;51.110;6.998;2022-07-29T03:11:40;8.00;;;2.30;;
57401;SDS011;43226;51.110;6.998;2022-07-29T03:14:06;5.13;;;2.07;;
57401;SDS011;43226;51.110;6.998;2022-07-29T03:16:32;7.93;;;1.70;;
57401;SDS011;43226;51.110;6.998;2022-07-29T03:18:58;10.23;;;2.03;;
57401;SDS011;43226;51.110;6.998;2022-07-29T03:21:23;3.70;;;1.80;;
57401;SDS011;43226;51.110;6.998;2022-07-29T03:23:48;4.13;;;2.00;;
57401;SDS011;43226;51.110;6.998;2022-07-29T03:26:14;6.73;;;1.83;;
57401;SDS011;43226;51.110;6.998;2022-07-29T03:28:39;3.40;;;2.13;;
57401;SDS011;43226;51.110;6.998;2022-07-29T03:31:04;4.10;;;2.10;;
57401;SDS011;43226;51.110;6.998;2022-07-29T03:33:29;4.80;;;1.77;;
57401;SDS011;43226;51.110;6.998;2022-07-29T03:35:55;5.07;;;1.93;;
57401;SDS011;43226;51.110;6.998;2022-07-29T03:38:20;2.30;;;1.90;;
57401;SDS011;43226;51.110;6.998;2022-07-29T03:40:57;5.40;;;2.10;;
57401;SDS011;43226;51.110;6.998;2022-07-29T03:43:25;6.73;;;2.30;;
57401;SDS011;43226;51.110;6.998;2022-07-29T03:45:55;10.03;;;2.20;;
57401;SDS011;43226;51.110;6.998;2022-07-29T03:48:22;9.33;;;2.17;;
57401;SDS011;43226;51.110;6.998;2022-07-29T03:50:49;4.97;;;2.27;;
57401;SDS011;43226;51.110;6.998;2022-07-29T03:53:15;8.43;;;2.27;;
57401;SDS011;43226;51.110;6.998;2022-07-29T03:55:41;7.73;;;2.37;;
57401;SDS011;43226;51.110;6.998;2022-07-29T03:58:07;6.33;;;2.23;;
57401;SDS011;43226;51.110;6.998;2022-07-29T04:00:33;6.20;;;2.13;;
57401;SDS011;43226;51.110;6.998;2022-07-29T04:02:59;7.13;;;2.00;;
57401;SDS011;43226;51.110;6.998;2022-07-29T04:05:24;5.03;;;2.20;;
57401;SDS011;43226;51.110;6.998;2022-07-29T04:07:49;4.63;;;2.00;;
57401;SDS011;43226;51.110;6.998;2022-07-29T04:10:15;6.27;;;2.37;;
57401;SDS011;43226;51.110;6.998;2022-07-29T04:12:41;6.17;;;2.53;;
57401;SDS011;43226;51.110;6.998;2022-07-29T04:15:07;8.20;;;2.30;;
57401;SDS011;43226;51.110;6.998;2022-07-29T04:17:32;3.33;;;1.80;;
57401;SDS011;43226;51.110;6.998;2022-07-29T04:19:58;5.90;;;2.20;;
57401;SDS011;43226;51.110;6.998;2022-07-29T04:22:23;3.17;;;1.93;;
57401;SDS011;43226;51.110;6.998;2022-07-29T04:24:48;3.40;;;2.00;;
57401;SDS011;43226;51.110;6.998;2022-07-29T04:27:13;6.47;;;2.10;;
57401;SDS011;43226;51.110;6.998;2022-07-29T04:29:38;7.93;;;2.47;;
57401;SDS011;43226;51.110;6.998;2022-07-29T04:32:04;8.43;;;2.40;;
57401;SDS011;43226;51.110;6.998;2022-07-29T04:34:29;4.90;;;2.20;;
57401;SDS011;43226;51.110;6.998;2022-07-29T04:36:54;5.67;;;2.13;;
57401;SDS011;43226;51.110;6.998;2022-07-29T04:39:20;2.70;;;1.80;;
57401;SDS011;43226;51.110;6.998;2022-07-29T04:41:45;8.00;;;2.03;;
57401;SDS011;43226;51.110;6.998;2022-07-29T04:44:11;3.77;;;1.70;;
57401;SDS011;43226;51.110;6.998;2022-07-29T04:46:36;7.70;;;2.30;;
57401;SDS011;43226;51.110;6.998;2022-07-29T04:49:01;3.60;;;2.00;;
57401;SDS011;43226;51.110;6.998;2022-07-29T04:51:27;9.63;;;2.03;;
57401;SDS011;43226;51.110;6.998;2022-07-29T04:53:52;4.77;;;2.10;;
57401;SDS011;43226;51.110;6.998;2022-07-29T04:56:17;9.67;;;2.27;;
57401;SDS011;43226;51.110;6.998;2022-07-29T04:58:42;2.80;;;1.93;;
57401;SDS011;43226;51.110;6.998;2022-07-29T05:01:07;9.80;;;2.20;;
57401;SDS011;43226;51.110;6.998;2022-07-29T05:03:33;6.30;;;2.03;;
57401;SDS011;43226;51.110;6.998;2022-07-29T05:05:58;15.53;;;2.20;;
57401;SDS011;43226;51.110;6.998;2022-07-29T05:08:23;8.33;;;2.23;;
57401;SDS011;43226;51.110;6.998;2022-07-29T05:10:48;7.67;;;1.87;;
57401;SDS011;43226;51.110;6.998;2022-07-29T05:13:13;11.60;;;2.27;;
57401;SDS011;43226;51.110;6.998;2022-07-29T05:15:39;3.27;;;1.70;;
57401;SDS011;43226;51.110;6.998;2022-07-29T05:18:04;4.10;;;2.00;;
57401;SDS011;43226;51.110;6.998;2022-07-29T05:20:29;3.87;;;1.77;;
57401;SDS011;43226;51.110;6.998;2022-07-29T05:22:55;5.60;;;1.60;;
57401;SDS011;43226;51.110;6.998;2022-07-29T05:25:21;7.40;;;2.30;;
57401;SDS011;43226;51.110;6.998;2022-07-29T05:27:46;6.53;;;1.70;;
57401;SDS011;43226;51.110;6.998;2022-07-29T05:30:12;5.20;;;2.20;;
57401;SDS011;43226;51.110;6.998;2022-07-29T05:32:37;12.97;;;2.37;;
57401;SDS011;43226;51.110;6.998;2022-07-29T05:35:03;4.40;;;1.90;;
57401;SDS011;43226;51.110;6.998;2022-07-29T05:37:28;6.30;;;2.17;;
57401;SDS011;43226;51.110;6.998;2022-07-29T05:39:53;8.50;;;2.40;;
57401;SDS011;43226;51.110;6.998;2022-07-29T05:42:18;7.20;;;2.20;;
57401;SDS011;43226;51.110;6.998;2022-07-29T05:44:43;3.17;;;1.83;;
57401;SDS011;43226;51.110;6.998;2022-07-29T05:47:08;5.00;;;2.30;;
57401;SDS011;43226;51.110;6.998;2022-07-29T05:49:34;4.93;;;2.30;;
57401;SDS011;43226;51.110;6.998;2022-07-29T05:51:59;6.33;;;1.90;;
57401;SDS011;43226;51.110;6.998;2022-07-29T05:54:24;6.03;;;1.87;;
57401;SDS011;43226;51.110;6.998;2022-07-29T05:56:49;4.07;;;1.90;;
57401;SDS011;43226;51.110;6.998;2022-07-29T05:59:15;3.43;;;2.53;;
57401;SDS011;43226;51.110;6.998;2022-07-29T06:01:40;6.30;;;2.17;;
57401;SDS011;43226;51.110;6.998;2022-07-29T06:04:06;6.80;;;1.80;;
57401;SDS011;43226;51.110;6.998;2022-07-29T06:06:32;7.73;;;2.00;;
57401;SDS011;43226;51.110;6.998;2022-07-29T06:08:57;3.13;;;2.10;;
57401;SDS011;43226;51.110;6.998;2022-07-29T06:11:22;4.67;;;2.17;;
57401;SDS011;43226;51.110;6.998;2022-07-29T06:13:47;2.43;;;1.93;;
57401;SDS011;43226;51.110;6.998;2022-07-29T06:16:13;2.93;;;1.80;;
57401;SDS011;43226;51.110;6.998;2022-07-29T06:18:38;7.57;;;1.80;;
57401;SDS011;43226;51.110;6.998;2022-07-29T06:21:07;7.17;;;2.30;;
57401;SDS011;43226;51.110;6.998;2022-07-29T06:23:33;8.93;;;1.90;;
57401;SDS011;43226;51.110;6.998;2022-07-29T06:25:58;3.97;;;1.80;;
57401;SDS011;43226;51.110;6.998;2022-07-29T06:28:24;3.77;;;2.10;;
57401;SDS011;43226;51.110;6.998;2022-07-29T06:30:49;4.13;;;1.93;;
57401;SDS011;43226;51.110;6.998;2022-07-29T06:33:18;5.23;;;2.27;;
57401;SDS011;43226;51.110;6.998;2022-07-29T06:35:43;6.73;;;1.80;;
57401;SDS011;43226;51.110;6.998;2022-07-29T06:38:09;18.00;;;2.17;;
57401;SDS011;43226;51.110;6.998;2022-07-29T06:40:36;7.20;;;1.90;;
57401;SDS011;43226;51.110;6.998;2022-07-29T06:43:20;5.43;;;1.57;;
57401;SDS011;43226;51.110;6.998;2022-07-29T06:45:45;6.60;;;2.13;;
57401;SDS011;43226;51.110;6.998;2022-07-29T06:48:11;5.50;;;1.77;;
57401;SDS011;43226;51.110;6.998;2022-07-29T06:50:36;6.23;;;2.27;;
57401;SDS011;43226;51.110;6.998;2022-07-29T06:53:01;5.13;;;1.70;;
57401;SDS011;43226;51.110;6.998;2022-07-29T06:55:26;4.50;;;1.93;;
57401;SDS011;43226;51.110;6.998;2022-07-29T06:57:51;7.63;;;1.87;;
57401;SDS011;43226;51.110;6.998;2022-07-29T07:00:17;3.50;;;1.80;;
57401;SDS011;43226;51.110;6.998;2022-07-29T07:02:42;5.33;;;2.30;;
57401;SDS011;43226;51.110;6.998;2022-07-29T07:05:08;3.60;;;2.00;;
57401;SDS011;43226;51.110;6.998;2022-07-29T07:07:33;5.57;;;2.10;;
57401;SDS011;43226;51.110;6.998;2022-07-29T07:09:58;7.20;;;1.83;;
57401;SDS011;43226;51.110;6.998;2022-07-29T07:12:24;4.00;;;1.97;;
57401;SDS011;43226;51.110;6.998;2022-07-29T07:14:49;7.90;;;1.90;;
57401;SDS011;43226;51.110;6.998;2022-07-29T07:17:14;4.80;;;2.30;;
57401;SDS011;43226;51.110;6.998;2022-07-29T07:19:39;5.33;;;2.13;;
57401;SDS011;43226;51.110;6.998;2022-07-29T07:22:04;5.50;;;2.20;;
57401;SDS011;43226;51.110;6.998;2022-07-29T07:24:30;4.83;;;1.70;;
57401;SDS011;43226;51.110;6.998;2022-07-29T07:26:55;6.70;;;2.07;;
57401;SDS011;43226;51.110;6.998;2022-07-29T07:29:20;5.57;;;2.00;;
57401;SDS011;43226;51.110;6.998;2022-07-29T07:31:45;7.40;;;2.03;;
57401;SDS011;43226;51.110;6.998;2022-07-29T07:34:10;3.50;;;2.00;;
57401;SDS011;43226;51.110;6.998;2022-07-29T07:36:36;5.03;;;1.90;;
57401;SDS011;43226;51.110;6.998;2022-07-29T07:39:01;4.90;;;2.30;;
57401;SDS011;43226;51.110;6.998;2022-07-29T07:41:27;7.43;;;2.50;;
57401;SDS011;43226;51.110;6.998;2022-07-29T07:43:52;4.80;;;2.30;;
57401;SDS011;43226;51.110;6.998;2022-07-29T07:46:17;5.07;;;2.10;;
57401;SDS011;43226;51.110;6.998;2022-07-29T07:48:42;4.93;;;2.27;;
57401;SDS011;43226;51.110;6.998;2022-07-29T07:51:08;5.20;;;1.83;;
57401;SDS011;43226;51.110;6.998;2022-07-29T07:53:33;10.67;;;2.47;;
57401;SDS011;43226;51.110;6.998;2022-07-29T07:55:59;4.10;;;2.63;;
57401;SDS011;43226;51.110;6.998;2022-07-29T07:58:24;10.13;;;2.93;;
57401;SDS011;43226;51.110;6.998;2022-07-29T08:00:49;7.30;;;2.50;;
57401;SDS011;43226;51.110;6.998;2022-07-29T08:03:14;3.83;;;2.07;;
57401;SDS011;43226;51.110;6.998;2022-07-29T08:05:40;5.00;;;2.53;;
57401;SDS011;43226;51.110;6.998;2022-07-29T08:08:05;5.40;;;2.80;;
57401;SDS011;43226;51.110;6.998;2022-07-29T08:10:31;8.00;;;2.60;;
57401;SDS011;43226;51.110;6.998;2022-07-29T08:13:15;6.53;;;2.67;;
57401;SDS011;43226;51.110;6.998;2022-07-29T08:15:40;5.90;;;2.20;;
57401;SDS011;43226;51.110;6.998;2022-07-29T08:18:10;4.83;;;2.30;;
57401;SDS011;43226;51.110;6.998;2022-07-29T08:20:36;5.97;;;2.17;;
57401;SDS011;43226;51.110;6.998;2022-07-29T08:23:02;6.07;;;2.00;;
57401;SDS011;43226;51.110;6.998;2022-07-29T08:25:29;11.33;;;2.60;;
57401;SDS011;43226;51.110;6.998;2022-07-29T08:27:54;6.57;;;3.00;;
57401;SDS011;43226;51.110;6.998;2022-07-29T08:30:19;6.27;;;2.87;;
57401;SDS011;43226;51.110;6.998;2022-07-29T08:32:44;4.70;;;2.50;;
57401;SDS011;43226;51.110;6.998;2022-07-29T08:35:09;3.67;;;2.57;;
57401;SDS011;43226;51.110;6.998;2022-07-29T08:37:35;3.97;;;2.30;;
57401;SDS011;43226;51.110;6.998;2022-07-29T08:40:00;10.63;;;3.10;;
57401;SDS011;43226;51.110;6.998;2022-07-29T08:42:25;8.30;;;2.60;;
57401;SDS011;43226;51.110;6.998;2022-07-29T08:44:50;7.33;;;2.67;;
57401;SDS011;43226;51.110;6.998;2022-07-29T08:47:16;3.57;;;2.63;;
57401;SDS011;43226;51.110;6.998;2022-07-29T08:49:41;5.97;;;2.37;;
57401;SDS011;43226;51.110;6.998;2022-07-29T08:52:06;6.10;;;2.60;;
57401;SDS011;43226;51.110;6.998;2022-07-29T08:54:34;8.93;;;3.30;;
57401;SDS011;43226;51.110;6.998;2022-07-29T08:57:00;3.43;;;2.97;;
57401;SDS011;43226;51.110;6.998;2022-07-29T08:59:26;7.60;;;2.93;;
57401;SDS011;43226;51.110;6.998;2022-07-29T09:01:52;8.70;;;3.47;;
57401;SDS011;43226;51.110;6.998;2022-07-29T09:04:18;5.27;;;3.20;;
57401;SDS011;43226;51.110;6.998;2022-07-29T09:06:44;8.87;;;3.30;;
57401;SDS011;43226;51.110;6.998;2022-07-29T09:09:11;6.10;;;2.80;;
57401;SDS011;43226;51.110;6.998;2022-07-29T09:11:36;5.97;;;3.10;;
57401;SDS011;43226;51.110;6.998;2022-07-29T09:14:02;8.53;;;2.73;;
57401;SDS011;43226;51.110;6.998;2022-07-29T09:16:43;16.40;;;3.03;;
57401;SDS011;43226;51.110;6.998;2022-07-29T09:21:46;8.60;;;2.77;;
57401;SDS011;43226;51.110;6.998;2022-07-29T09:24:24;10.13;;;3.10;;
57401;SDS011;43226;51.110;6.998;2022-07-29T09:26:49;9.87;;;2.83;;
57401;SDS011;43226;51.110;6.998;2022-07-29T09:29:18;5.37;;;2.80;;
57401;SDS011;43226;51.110;6.998;2022-07-29T09:31:44;12.87;;;2.77;;
57401;SDS011;43226;51.110;6.998;2022-07-29T09:34:10;8.93;;;2.97;;
57401;SDS011;43226;51.110;6.998;2022-07-29T09:36:39;6.13;;;3.00;;
57401;SDS011;43226;51.110;6.998;2022-07-29T09:39:05;12.07;;;3.00;;
57401;SDS011;43226;51.110;6.998;2022-07-29T09:41:30;4.67;;;2.40;;
57401;SDS011;43226;51.110;6.998;2022-07-29T09:44:08;7.23;;;3.17;;
57401;SDS011;43226;51.110;6.998;2022-07-29T09:46:33;5.43;;;2.53;;
57401;SDS011;43226;51.110;6.998;2022-07-29T09:49:08;6.10;;;2.73;;
57401;SDS011;43226;51.110;6.998;2022-07-29T09:51:34;3.10;;;2.47;;
57401;SDS011;43226;51.110;6.998;2022-07-29T09:53:59;10.53;;;2.80;;
57401;SDS011;43226;51.110;6.998;2022-07-29T09:56:38;14.00;;;3.70;;
57401;SDS011;43226;51.110;6.998;2022-07-29T09:59:08;5.77;;;3.13;;
57401;SDS011;43226;51.110;6.998;2022-07-29T10:01:33;10.23;;;3.63;;
57401;SDS011;43226;51.110;6.998;2022-07-29T10:04:00;8.47;;;3.00;;
57401;SDS011;43226;51.110;6.998;2022-07-29T10:06:25;19.93;;;3.40;;
57401;SDS011;43226;51.110;6.998;2022-07-29T10:08:50;9.83;;;3.60;;
57401;SDS011;43226;51.110;6.998;2022-07-29T10:11:16;8.23;;;3.10;;
57401;SDS011;43226;51.110;6.998;2022-07-29T10:13:42;10.20;;;3.40;;
57401;SDS011;43226;51.110;6.998;2022-07-29T10:16:08;12.83;;;3.57;;
57401;SDS011;43226;51.110;6.998;2022-07-29T10:18:33;7.83;;;3.73;;
57401;SDS011;43226;51.110;6.998;2022-07-29T10:20:58;11.93;;;4.10;;
57401;SDS011;43226;51.110;6.998;2022-07-29T10:23:29;7.77;;;3.60;;
57401;SDS011;43226;51.110;6.998;2022-07-29T10:25:55;14.80;;;5.20;;
57401;SDS011;43226;51.110;6.998;2022-07-29T10:28:20;7.20;;;4.17;;
57401;SDS011;43226;51.110;6.998;2022-07-29T10:30:45;8.87;;;3.83;;
57401;SDS011;43226;51.110;6.998;2022-07-29T10:35:59;16.83;;;4.60;;
57401;SDS011;43226;51.110;6.998;2022-07-29T10:39:17;7.67;;;4.13;;
57401;SDS011;43226;51.110;6.998;2022-07-29T10:41:23;7.97;;;4.00;;
57401;SDS011;43226;51.110;6.998;2022-07-29T10:46:27;11.40;;;4.20;;
57401;SDS011;43226;51.110;6.998;2022-07-29T11:05:06;10.13;;;4.50;;
57401;SDS011;43226;51.110;6.998;2022-07-29T11:07:32;13.90;;;4.40;;
57401;SDS011;43226;51.110;6.998;2022-07-29T11:15:01;9.73;;;3.80;;
57401;SDS011;43226;51.110;6.998;2022-07-29T11:17:28;5.00;;;3.50;;
57401;SDS011;43226;51.110;6.998;2022-07-29T11:22:37;7.83;;;3.60;;
57401;SDS011;43226;51.110;6.998;2022-07-29T11:25:12;5.17;;;3.50;;
57401;SDS011;43226;51.110;6.998;2022-07-29T11:27:37;6.93;;;2.77;;
57401;SDS011;43226;51.110;6.998;2022-07-29T11:30:04;6.93;;;2.97;;
57401;SDS011;43226;51.110;6.998;2022-07-29T11:32:37;5.60;;;3.43;;
57401;SDS011;43226;51.110;6.998;2022-07-29T11:35:24;11.73;;;3.30;;
57401;SDS011;43226;51.110;6.998;2022-07-29T11:40:32;5.33;;;3.47;;
57401;SDS011;43226;51.110;6.998;2022-07-29T11:42:57;6.50;;;3.50;;
57401;SDS011;43226;51.110;6.998;2022-07-29T11:45:23;5.60;;;3.47;;
57401;SDS011;43226;51.110;6.998;2022-07-29T11:47:53;7.00;;;2.70;;
57401;SDS011;43226;51.110;6.998;2022-07-29T11:52:53;5.60;;;3.27;;
57401;SDS011;43226;51.110;6.998;2022-07-29T11:55:19;3.93;;;2.77;;
57401;SDS011;43226;51.110;6.998;2022-07-29T11:57:49;5.60;;;2.40;;
57401;SDS011;43226;51.110;6.998;2022-07-29T12:02:55;5.20;;;2.60;;
57401;SDS011;43226;51.110;6.998;2022-07-29T12:05:21;8.00;;;2.90;;
57401;SDS011;43226;51.110;6.998;2022-07-29T12:07:46;5.87;;;2.83;;
57401;SDS011;43226;51.110;6.998;2022-07-29T12:10:12;5.60;;;2.87;;
57401;SDS011;43226;51.110;6.998;2022-07-29T12:12:37;7.70;;;3.00;;
57401;SDS011;43226;51.110;6.998;2022-07-29T12:15:10;6.87;;;2.53;;
57401;SDS011;43226;51.110;6.998;2022-07-29T12:17:35;4.07;;;2.90;;
57401;SDS011;43226;51.110;6.998;2022-07-29T12:20:01;5.70;;;2.60;;
57401;SDS011;43226;51.110;6.998;2022-07-29T12:22:31;5.00;;;2.43;;
57401;SDS011;43226;51.110;6.998;2022-07-29T12:25:04;4.73;;;2.40;;
57401;SDS011;43226;51.110;6.998;2022-07-29T12:27:29;5.90;;;2.70;;
57401;SDS011;43226;51.110;6.998;2022-07-29T12:29:55;5.70;;;2.90;;
57401;SDS011;43226;51.110;6.998;2022-07-29T12:32:21;5.60;;;2.70;;
57401;SDS011;43226;51.110;6.998;2022-07-29T12:34:46;3.07;;;2.70;;
57401;SDS011;43226;51.110;6.998;2022-07-29T12:37:11;4.73;;;3.20;;
57401;SDS011;43226;51.110;6.998;2022-07-29T12:39:37;3.40;;;2.40;;
57401;SDS011;43226;51.110;6.998;2022-07-29T12:42:10;14.13;;;3.03;;
57401;SDS011;43226;51.110;6.998;2022-07-29T12:44:47;5.97;;;2.50;;
57401;SDS011;43226;51.110;6.998;2022-07-29T12:47:13;5.40;;;3.00;;
57401;SDS011;43226;51.110;6.998;2022-07-29T12:49:38;4.83;;;2.73;;
57401;SDS011;43226;51.110;6.998;2022-07-29T12:54:47;3.60;;;2.73;;
57401;SDS011;43226;51.110;6.998;2022-07-29T12:57:12;5.00;;;2.10;;
57401;SDS011;43226;51.110;6.998;2022-07-29T12:59:37;3.20;;;2.60;;
57401;SDS011;43226;51.110;6.998;2022-07-29T13:02:03;6.00;;;2.87;;
57401;SDS011;43226;51.110;6.998;2022-07-29T13:04:30;11.50;;;3.20;;
57401;SDS011;43226;51.110;6.998;2022-07-29T13:07:05;6.30;;;2.60;;
57401;SDS011;43226;51.110;6.998;2022-07-29T13:09:41;2.60;;;2.40;;
57401;SDS011;43226;51.110;6.998;2022-07-29T13:12:10;5.40;;;2.83;;
57401;SDS011;43226;51.110;6.998;2022-07-29T13:14:42;4.77;;;3.07;;
57401;SDS011;43226;51.110;6.998;2022-07-29T13:19:42;9.80;;;2.60;;
57401;SDS011;43226;51.110;6.998;2022-07-29T13:22:15;4.50;;;2.63;;
57401;SDS011;43226;51.110;6.998;2022-07-29T13:24:50;5.53;;;2.50;;
57401;SDS011;43226;51.110;6.998;2022-07-29T13:27:17;4.70;;;2.97;;
57401;SDS011;43226;51.110;6.998;2022-07-29T13:29:42;9.50;;;3.40;;
57401;SDS011;43226;51.110;6.998;2022-07-29T13:32:07;8.40;;;2.97;;
57401;SDS011;43226;51.110;6.998;2022-07-29T13:34:33;9.60;;;3.17;;
57401;SDS011;43226;51.110;6.998;2022-07-29T13:36:58;11.73;;;5.40;;
57401;SDS011;43226;51.110;6.998;2022-07-29T13:39:23;11.23;;;2.73;;
57401;SDS011;43226;51.110;6.998;2022-07-29T13:41:48;9.60;;;4.03;;
57401;SDS011;43226;51.110;6.998;2022-07-29T13:44:14;4.60;;;2.77;;
57401;SDS011;43226;51.110;6.998;2022-07-29T13:46:39;5.90;;;3.23;;
57401;SDS011;43226;51.110;6.998;2022-07-29T13:49:04;5.20;;;2.87;;
57401;SDS011;43226;51.110;6.998;2022-07-29T13:51:30;7.37;;;3.57;;
57401;SDS011;43226;51.110;6.998;2022-07-29T13:53:55;6.37;;;3.63;;
57401;SDS011;43226;51.110;6.998;2022-07-29T13:56:20;5.53;;;3.83;;
57401;SDS011;43226;51.110;6.998;2022-07-29T13:58:46;7.23;;;4.17;;
57401;SDS011;43226;51.110;6.998;2022-07-29T14:01:11;14.27;;;3.17;;
57401;SDS011;43226;51.110;6.998;2022-07-29T14:03:36;7.03;;;3.30;;
57401;SDS011;43226;51.110;6.998;2022-07-29T14:06:05;10.37;;;3.30;;
57401;SDS011;43226;51.110;6.998;2022-07-29T14:08:30;6.27;;;2.70;;
57401;SDS011;43226;51.110;6.998;2022-07-29T14:10:56;8.40;;;3.20;;
57401;SDS011;43226;51.110;6.998;2022-07-29T14:13:21;5.87;;;3.27;;
57401;SDS011;43226;51.110;6.998;2022-07-29T14:15:46;6.23;;;3.27;;
57401;SDS011;43226;51.110;6.998;2022-07-29T14:18:11;5.60;;;2.90;;
57401;SDS011;43226;51.110;6.998;2022-07-29T14:20:36;5.47;;;2.80;;
57401;SDS011;43226;51.110;6.998;2022-07-29T14:23:02;6.33;;;2.70;;
57401;SDS011;43226;51.110;6.998;2022-07-29T14:25:27;12.40;;;3.67;;
57401;SDS011;43226;51.110;6.998;2022-07-29T14:27:52;5.90;;;2.93;;
57401;SDS011;43226;51.110;6.998;2022-07-29T14:30:19;8.40;;;3.00;;
57401;SDS011;43226;51.110;6.998;2022-07-29T14:32:44;5.70;;;2.90;;
57401;SDS011;43226;51.110;6.998;2022-07-29T14:35:09;6.63;;;3.23;;
57401;SDS011;43226;51.110;6.998;2022-07-29T14:37:35;4.90;;;2.87;;
57401;SDS011;43226;51.110;6.998;2022-07-29T14:40:00;8.50;;;2.83;;
57401;SDS011;43226;51.110;6.998;2022-07-29T14:42:28;6.20;;;2.33;;
57401;SDS011;43226;51.110;6.998;2022-07-29T14:44:54;5.90;;;2.80;;
57401;SDS011;43226;51.110;6.998;2022-07-29T14:47:19;4.73;;;2.80;;
57401;SDS011;43226;51.110;6.998;2022-07-29T14:49:44;10.73;;;3.57;;
57401;SDS011;43226;51.110;6.998;2022-07-29T14:52:09;4.53;;;2.63;;
57401;SDS011;43226;51.110;6.998;2022-07-29T14:54:34;5.10;;;2.90;;
57401;SDS011;43226;51.110;6.998;2022-07-29T14:57:00;8.27;;;3.30;;
57401;SDS011;43226;51.110;6.998;2022-07-29T14:59:25;6.50;;;3.10;;
57401;SDS011;43226;51.110;6.998;2022-07-29T15:01:51;8.47;;;3.20;;
57401;SDS011;43226;51.110;6.998;2022-07-29T15:04:16;8.30;;;3.13;;
57401;SDS011;43226;51.110;6.998;2022-07-29T15:06:41;3.47;;;2.90;;
57401;SDS011;43226;51.110;6.998;2022-07-29T15:09:07;9.20;;;3.43;;
57401;SDS011;43226;51.110;6.998;2022-07-29T15:11:33;4.87;;;2.80;;
57401;SDS011;43226;51.110;6.998;2022-07-29T15:13:58;6.20;;;2.90;;
57401;SDS011;43226;51.110;6.998;2022-07-29T15:16:23;5.10;;;2.70;;
57401;SDS011;43226;51.110;6.998;2022-07-29T15:18:49;7.50;;;2.90;;
57401;SDS011;43226;51.110;6.998;2022-07-29T15:21:14;10.87;;;3.50;;
57401;SDS011;43226;51.110;6.998;2022-07-29T15:23:40;9.60;;;3.17;;
57401;SDS011;43226;51.110;6.998;2022-07-29T15:26:05;7.23;;;3.37;;
57401;SDS011;43226;51.110;6.998;2022-07-29T15:28:30;5.30;;;2.80;;
57401;SDS011;43226;51.110;6.998;2022-07-29T15:30:55;3.97;;;2.90;;
57401;SDS011;43226;51.110;6.998;2022-07-29T15:33:21;9.80;;;2.60;;
57401;SDS011;43226;51.110;6.998;2022-07-29T15:35:46;4.33;;;2.80;;
57401;SDS011;43226;51.110;6.998;2022-07-29T15:38:11;6.80;;;2.93;;
57401;SDS011;43226;51.110;6.998;2022-07-29T15:40:37;7.70;;;2.70;;
57401;SDS011;43226;51.110;6.998;2022-07-29T15:43:05;6.67;;;3.40;;